MET'MAP v2.0
soon released !

Expected late october,
this new version will be
more efficient, smarter,
and hosted on a brand new
server x3 powerfull...
...and still free !


Not compatible ?
Try the mobile version !

LOG IN : | Subscribe | Disclaimer | Who is Orbifly ? |
ICAO code :
Legend : VFR Marginal VFR IFR Intensive IFR Very Intensive IFR
Visi :
Ceiling :
>= 8 km
>= 3000ft
5 to 8 km
1000 to 3000 ft
1500m to 5 km
500 to 1000 ft
800 to 1500m
200 to 500 ft
< 800m
< 200 ft

METAR - LKTB Brno-Turany - 30 Mar 2020 12:00 UTC - Data Source NOAA   


- Airport Elevation : 778 ft
- IATA code : BRQ
- No reported NOTAMs.


LKTB - Brno-Turany

Latest METAR recorded : 2015/08/11 08:00 LKTB 110800Z VRB02KT CAVOK 28/17 Q1015 NOSIG
TAF TAF LKTB
Valid from the 30 at 06:00 until the 31 at 12:00 UTC


300500Z 3006/3112 01012KT 9999 BKN025
TEMPO 3006/3018 02014G24KT
PROB30
TEMPO 3006/3012 4000 RASN BKN012
BECMG 3018/3021 VRB02KT CAVOK
BECMG 3107/3109 BKN020
TEMPO 3109/3112 4000 SN BKN012
PROB30
TEMPO 3109/3112 2000 SN BKN006

Source NOAA


MET'MAP, your aeronautical weather chart ! - Copyright ORBIFLY December 2007

Programming & Development : Alexandra Zaïnal
Co-Developer : Marc-Olivier Méhu
Technical & hardware support : Manuel Goepfert
Concept & Financing : Baudouin d'Aumeries